Time,TemperatureF,DewpointF,PressureIn,WindDirection,WindDirectionDegrees,WindSpeedMPH,WindSpeedGustMPH,Humidity,HourlyPrecipIn,Conditions,Clouds,dailyrainin,SoftwareType,DateUTC
2013-06-19 00:01:00,67.0,62.0,-100.00,ESE,113,5.0,-999.0,84,-99.99,,,-99.99,,2013-06-19 05:01:00,
2013-06-19 00:11:00,67.0,62.0,-100.00,ESE,113,5.0,-999.0,84,-99.99,,,-99.99,,2013-06-19 05:11:00,
2013-06-19 00:22:00,66.0,61.0,-100.00,SE,135,6.0,-999.0,85,-99.99,,,-99.99,,2013-06-19 05:22:00,
2013-06-19 00:32:00,65.0,61.0,-100.00,SE,135,6.0,-999.0,87,-99.99,,,-99.99,,2013-06-19 05:32:00,
2013-06-19 00:42:00,65.0,61.0,-100.00,SE,135,6.0,-999.0,87,-99.99,,,-99.99,,2013-06-19 05:42:00,
2013-06-19 00:52:00,64.0,61.0,-100.00,SE,135,5.0,-999.0,89,-99.99,,,-99.99,,2013-06-19 05:52:00,
2013-06-19 01:01:00,64.0,61.0,-100.00,SE,135,6.0,-999.0,89,-99.99,,,-99.99,,2013-06-19 06:01:00,
2013-06-19 01:11:00,64.0,61.0,-100.00,SE,135,6.0,-999.0,89,-99.99,,,-99.99,,2013-06-19 06:11:00,
2013-06-19 01:22:00,63.0,60.0,-100.00,SE,135,6.0,-999.0,89,-99.99,,,-99.99,,2013-06-19 06:22:00,
2013-06-19 01:33:00,63.0,60.0,-100.00,SE,135,6.0,-999.0,91,-99.99,,,-99.99,,2013-06-19 06:33:00,
2013-06-19 01:42:00,63.0,60.0,-100.00,SE,135,6.0,-999.0,91,-99.99,,,-99.99,,2013-06-19 06:42:00,
2013-06-19 01:52:00,63.0,60.0,-100.00,SE,135,7.0,-999.0,92,-99.99,,,-99.99,,2013-06-19 06:52:00,
2013-06-19 02:01:00,63.0,61.0,-100.00,SE,135,7.0,-999.0,92,-99.99,,,-99.99,,2013-06-19 07:01:00,
2013-06-19 02:11:00,63.0,61.0,-100.00,SE,135,7.0,-999.0,92,-99.99,,,-99.99,,2013-06-19 07:11:00,
2013-06-19 02:22:00,63.0,61.0,-100.00,SE,135,7.0,-999.0,92,-99.99,,,-99.99,,2013-06-19 07:22:00,
2013-06-19 02:33:00,63.0,61.0,-100.00,SSE,158,8.0,-999.0,93,-99.99,,,-99.99,,2013-06-19 07:33:00,
2013-06-19 02:43:00,63.0,61.0,-100.00,SSE,158,8.0,-999.0,93,-99.99,,,-99.99,,2013-06-19 07:43:00,
2013-06-19 02:53:00,63.0,61.0,-100.00,SSE,158,7.0,-999.0,93,-99.99,,,-99.99,,2013-06-19 07:53:00,
2013-06-19 03:02:00,63.0,61.0,-100.00,SE,135,8.0,-999.0,93,-99.99,,,-99.99,,2013-06-19 08:02:00,
2013-06-19 03:11:00,63.0,61.0,-100.00,SE,135,8.0,-999.0,93,-99.99,,,-99.99,,2013-06-19 08:11:00,
2013-06-19 03:22:00,63.0,61.0,-100.00,SSE,158,8.0,-999.0,93,-99.99,,,-99.99,,2013-06-19 08:22:00,
2013-06-19 03:33:00,63.0,61.0,-100.00,SSE,158,6.0,-999.0,93,-99.99,,,-99.99,,2013-06-19 08:33:00,
2013-06-19 03:43:00,63.0,61.0,-100.00,SSE,158,6.0,-999.0,93,-99.99,,,-99.99,,2013-06-19 08:43:00,
2013-06-19 03:54:00,63.0,61.0,-100.00,SSE,158,8.0,-999.0,93,-99.99,,,-99.99,,2013-06-19 08:54:00,
2013-06-19 04:02:00,62.0,60.0,-100.00,SSE,158,7.0,-999.0,93,-99.99,,,-99.99,,2013-06-19 09:02:00,
2013-06-19 04:11:00,62.0,60.0,-100.00,SSE,158,7.0,-999.0,93,-99.99,,,-99.99,,2013-06-19 09:11:00,
2013-06-19 04:22:00,62.0,60.0,-100.00,SSE,158,8.0,-999.0,94,-99.99,,,-99.99,,2013-06-19 09:22:00,
2013-06-19 04:34:00,63.0,61.0,-100.00,SSE,158,7.0,-999.0,94,-99.99,,,-99.99,,2013-06-19 09:34:00,
2013-06-19 04:43:00,63.0,61.0,-100.00,SSE,158,7.0,-999.0,94,-99.99,,,-99.99,,2013-06-19 09:43:00,
2013-06-19 04:53:00,62.0,60.0,-100.00,SE,135,8.0,-999.0,94,-99.99,,,-99.99,,2013-06-19 09:53:00,
2013-06-19 05:01:00,62.0,60.0,-100.00,SE,135,8.0,-999.0,94,-99.99,,,-99.99,,2013-06-19 10:01:00,
2013-06-19 05:11:00,62.0,60.0,-100.00,SE,135,8.0,-999.0,94,-99.99,,,-99.99,,2013-06-19 10:11:00,
2013-06-19 05:22:00,61.0,60.0,-100.00,SE,135,6.0,-999.0,95,-99.99,,,-99.99,,2013-06-19 10:22:00,
2013-06-19 05:33:00,61.0,60.0,-100.00,SE,135,8.0,-999.0,95,-99.99,,,-99.99,,2013-06-19 10:33:00,
2013-06-19 05:42:00,61.0,60.0,-100.00,SE,135,8.0,-999.0,95,-99.99,,,-99.99,,2013-06-19 10:42:00,
2013-06-19 05:53:00,62.0,60.0,-100.00,SSE,158,7.0,-999.0,95,-99.99,,,-99.99,,2013-06-19 10:53:00,
2013-06-19 06:02:00,62.0,60.0,-100.00,SE,135,6.0,-999.0,95,-99.99,,,-99.99,,2013-06-19 11:02:00,
2013-06-19 06:11:00,61.0,60.0,-100.00,SSE,158,8.0,-999.0,95,-99.99,,,-99.99,,2013-06-19 11:11:00,
2013-06-19 06:22:00,61.0,60.0,-100.00,SSE,158,8.0,-999.0,95,-99.99,,,-99.99,,2013-06-19 11:22:00,
2013-06-19 06:33:00,62.0,61.0,-100.00,SSE,158,8.0,-999.0,95,-99.99,,,-99.99,,2013-06-19 11:33:00,
2013-06-19 06:42:00,62.0,61.0,-100.00,SSE,158,8.0,-999.0,95,-99.99,,,-99.99,,2013-06-19 11:42:00,
2013-06-19 06:54:00,62.0,61.0,-100.00,SSE,158,7.0,-999.0,95,-99.99,,,-99.99,,2013-06-19 11:54:00,
2013-06-19 07:01:00,63.0,61.0,-100.00,SSE,158,8.0,-999.0,94,-99.99,,,-99.99,,2013-06-19 12:01:00,
2013-06-19 07:12:00,63.0,61.0,-100.00,SSE,158,8.0,-999.0,93,-99.99,,,-99.99,,2013-06-19 12:12:00,
2013-06-19 07:22:00,63.0,61.0,-100.00,SSE,158,8.0,-999.0,93,-99.99,,,-99.99,,2013-06-19 12:22:00,
2013-06-19 07:34:00,65.0,62.0,-100.00,SSE,158,9.0,-999.0,89,-99.99,,,-99.99,,2013-06-19 12:34:00,
2013-06-19 07:44:00,65.0,62.0,-100.00,SSE,158,9.0,-999.0,89,-99.99,,,-99.99,,2013-06-19 12:44:00,
2013-06-19 07:53:00,66.0,62.0,-100.00,SSE,158,10.0,-999.0,85,-99.99,,,-99.99,,2013-06-19 12:53:00,
2013-06-19 08:02:00,67.0,62.0,-100.00,SSE,158,11.0,-999.0,82,-99.99,,,-99.99,,2013-06-19 13:02:00,
2013-06-19 08:11:00,69.0,62.0,-100.00,SSE,158,11.0,-999.0,79,-99.99,,,-99.99,,2013-06-19 13:11:00,
2013-06-19 08:22:00,69.0,62.0,-100.00,SSE,158,11.0,-999.0,79,-99.99,,,-99.99,,2013-06-19 13:22:00,
2013-06-19 08:33:00,70.0,62.0,-100.00,SSE,158,13.0,-999.0,75,-99.99,,,-99.99,,2013-06-19 13:33:00,
2013-06-19 08:42:00,70.0,62.0,-100.00,SSE,158,13.0,-999.0,75,-99.99,,,-99.99,,2013-06-19 13:42:00,
2013-06-19 08:54:00,71.0,62.0,-100.00,SSE,158,13.0,-999.0,72,-99.99,,,-99.99,,2013-06-19 13:54:00,
2013-06-19 09:02:00,72.0,61.0,-100.00,SSE,158,12.0,-999.0,69,-99.99,,,-99.99,,2013-06-19 14:02:00,
2013-06-19 09:11:00,72.0,61.0,-100.00,SSE,158,12.0,-999.0,69,-99.99,,,-99.99,,2013-06-19 14:11:00,
2013-06-19 09:22:00,73.0,61.0,-100.00,SSE,158,11.0,-999.0,65,-99.99,,,-99.99,,2013-06-19 14:22:00,
2013-06-19 09:33:00,75.0,61.0,-100.00,SSE,158,13.0,-999.0,62,-99.99,,,-99.99,,2013-06-19 14:33:00,
2013-06-19 09:43:00,75.0,61.0,-100.00,SSE,158,13.0,-999.0,62,-99.99,,,-99.99,,2013-06-19 14:43:00,
2013-06-19 09:53:00,76.0,60.0,-100.00,SSE,158,14.0,-999.0,59,-99.99,,,-99.99,,2013-06-19 14:53:00,
2013-06-19 10:01:00,78.0,61.0,-100.00,SSE,158,11.0,-999.0,56,-99.99,,,-99.99,,2013-06-19 15:01:00,
2013-06-19 10:11:00,78.0,61.0,-100.00,SSE,158,11.0,-999.0,56,-99.99,,,-99.99,,2013-06-19 15:11:00,
2013-06-19 11:11:00,82.0,59.0,-100.00,SSW,203,13.0,-999.0,45,-99.99,,,-99.99,,2013-06-19 16:11:00,
2013-06-19 11:43:00,84.0,60.0,-100.00,South,180,12.0,-999.0,44,-99.99,,,-99.99,,2013-06-19 16:43:00,
2013-06-19 11:53:00,84.0,60.0,-100.00,South,180,11.0,-999.0,45,-99.99,,,-99.99,,2013-06-19 16:53:00,
2013-06-19 12:11:00,86.0,61.0,-100.00,South,180,14.0,-999.0,43,-99.99,,,-99.99,,2013-06-19 17:11:00,
2013-06-19 13:53:00,89.0,62.0,-100.00,South,180,17.0,-999.0,40,-99.99,,,-99.99,,2013-06-19 18:53:00,
2013-06-19 14:11:00,91.0,61.0,-100.00,South,180,21.0,-999.0,37,-99.99,,,-99.99,,2013-06-19 19:11:00,
2013-06-19 15:11:00,92.0,59.0,-100.00,South,180,20.0,-999.0,33,-99.99,,,-99.99,,2013-06-19 20:11:00,
2013-06-19 15:52:00,91.0,56.0,-100.00,South,180,19.0,-999.0,31,-99.99,,,-99.99,,2013-06-19 20:52:00,
2013-06-19 16:02:00,90.0,57.0,-100.00,South,180,13.0,-999.0,33,-99.99,,,-99.99,,2013-06-19 21:02:00,
2013-06-19 16:11:00,91.0,57.0,-100.00,SSE,158,19.0,-999.0,32,-99.99,,,-99.99,,2013-06-19 21:11:00,
2013-06-19 16:22:00,91.0,57.0,-100.00,SSE,158,19.0,-999.0,32,-99.99,,,-99.99,,2013-06-19 21:22:00,
2013-06-19 16:33:00,92.0,58.0,-100.00,SSE,158,19.0,-999.0,32,-99.99,,,-99.99,,2013-06-19 21:33:00,
2013-06-19 16:44:00,92.0,58.0,-100.00,SSE,158,19.0,-999.0,32,-99.99,,,-99.99,,2013-06-19 21:44:00,
2013-06-19 16:52:00,93.0,58.0,-100.00,SSE,158,17.0,-999.0,31,-99.99,,,-99.99,,2013-06-19 21:52:00,
2013-06-19 17:11:00,94.0,56.0,-100.00,SSW,203,18.0,-999.0,28,-99.99,,,-99.99,,2013-06-19 22:11:00,
2013-06-19 17:34:00,92.0,56.0,-100.00,SSE,158,17.0,-999.0,30,-99.99,,,-99.99,,2013-06-19 22:34:00,
2013-06-19 17:43:00,92.0,56.0,-100.00,SSE,158,17.0,-999.0,30,-99.99,,,-99.99,,2013-06-19 22:43:00,
2013-06-19 17:53:00,92.0,57.0,-100.00,South,180,22.0,-999.0,31,-99.99,,,-99.99,,2013-06-19 22:53:00,
2013-06-19 18:02:00,92.0,57.0,-100.00,South,180,20.0,-999.0,31,-99.99,,,-99.99,,2013-06-19 23:02:00,
2013-06-19 18:12:00,91.0,57.0,-100.00,SSE,158,20.0,-999.0,32,-99.99,,,-99.99,,2013-06-19 23:12:00,
2013-06-19 18:23:00,91.0,57.0,-100.00,SSE,158,20.0,-999.0,32,-99.99,,,-99.99,,2013-06-19 23:23:00,
2013-06-19 18:33:00,91.0,57.0,-100.00,South,180,23.0,-999.0,32,-99.99,,,-99.99,,2013-06-19 23:33:00,
2013-06-19 18:43:00,91.0,57.0,-100.00,South,180,23.0,-999.0,32,-99.99,,,-99.99,,2013-06-19 23:43:00,
2013-06-19 18:52:00,91.0,57.0,-100.00,South,180,22.0,-999.0,32,-99.99,,,-99.99,,2013-06-19 23:52:00,
2013-06-19 19:01:00,90.0,56.0,-100.00,South,180,22.0,-999.0,32,-99.99,,,-99.99,,2013-06-20 00:01:00,
2013-06-19 19:12:00,90.0,56.0,-100.00,South,180,21.0,-999.0,32,-99.99,,,-99.99,,2013-06-20 00:12:00,
2013-06-19 19:22:00,90.0,56.0,-100.00,South,180,21.0,-999.0,32,-99.99,,,-99.99,,2013-06-20 00:22:00,
2013-06-19 19:33:00,89.0,56.0,-100.00,South,180,22.0,-999.0,33,-99.99,,,-99.99,,2013-06-20 00:33:00,
2013-06-19 19:44:00,89.0,56.0,-100.00,South,180,22.0,-999.0,33,-99.99,,,-99.99,,2013-06-20 00:44:00,
2013-06-19 19:52:00,88.0,54.0,-100.00,South,180,20.0,-999.0,31,-99.99,,,-99.99,,2013-06-20 00:52:00,
2013-06-19 20:02:00,87.0,53.0,-100.00,South,180,19.0,-999.0,31,-99.99,,,-99.99,,2013-06-20 01:02:00,
2013-06-19 20:11:00,87.0,54.0,-100.00,South,180,17.0,-999.0,33,-99.99,,,-99.99,,2013-06-20 01:11:00,
2013-06-19 20:22:00,87.0,54.0,-100.00,South,180,17.0,-999.0,33,-99.99,,,-99.99,,2013-06-20 01:22:00,
2013-06-19 20:33:00,85.0,54.0,-100.00,SSE,158,16.0,-999.0,35,-99.99,,,-99.99,,2013-06-20 01:33:00,
2013-06-19 20:44:00,85.0,54.0,-100.00,SSE,158,16.0,-999.0,35,-99.99,,,-99.99,,2013-06-20 01:44:00,
2013-06-19 20:52:00,84.0,54.0,-100.00,SSE,158,13.0,-999.0,36,-99.99,,,-99.99,,2013-06-20 01:52:00,
2013-06-19 21:02:00,83.0,54.0,-100.00,South,180,14.0,-999.0,37,-99.99,,,-99.99,,2013-06-20 02:02:00,
2013-06-19 21:11:00,81.0,54.0,-100.00,South,180,11.0,-999.0,39,-99.99,,,-99.99,,2013-06-20 02:11:00,
2013-06-19 21:24:00,81.0,54.0,-100.00,South,180,11.0,-999.0,39,-99.99,,,-99.99,,2013-06-20 02:24:00,
2013-06-19 21:33:00,80.0,54.0,-100.00,SSE,158,12.0,-999.0,41,-99.99,,,-99.99,,2013-06-20 02:33:00,
2013-06-19 21:43:00,80.0,54.0,-100.00,SSE,158,12.0,-999.0,41,-99.99,,,-99.99,,2013-06-20 02:43:00,
2013-06-19 21:52:00,78.0,55.0,-100.00,SSE,158,11.0,-999.0,44,-99.99,,,-99.99,,2013-06-20 02:52:00,
2013-06-19 22:02:00,78.0,56.0,-100.00,SSE,158,11.0,-999.0,47,-99.99,,,-99.99,,2013-06-20 03:02:00,
2013-06-19 22:11:00,78.0,56.0,-100.00,SSE,158,11.0,-999.0,47,-99.99,,,-99.99,,2013-06-20 03:11:00,
2013-06-19 22:22:00,78.0,57.0,-100.00,South,180,13.0,-999.0,48,-99.99,,,-99.99,,2013-06-20 03:22:00,
2013-06-19 22:33:00,78.0,57.0,-100.00,SSE,158,14.0,-999.0,49,-99.99,,,-99.99,,2013-06-20 03:33:00,
2013-06-19 22:43:00,78.0,57.0,-100.00,SSE,158,14.0,-999.0,49,-99.99,,,-99.99,,2013-06-20 03:43:00,
2013-06-19 22:54:00,77.0,57.0,-100.00,South,180,13.0,-999.0,50,-99.99,,,-99.99,,2013-06-20 03:54:00,
2013-06-19 23:01:00,76.0,58.0,-100.00,South,180,12.0,-999.0,52,-99.99,,,-99.99,,2013-06-20 04:01:00,
2013-06-19 23:11:00,76.0,58.0,-100.00,South,180,12.0,-999.0,52,-99.99,,,-99.99,,2013-06-20 04:11:00,
2013-06-19 23:22:00,76.0,58.0,-100.00,South,180,12.0,-999.0,54,-99.99,,,-99.99,,2013-06-20 04:22:00,
2013-06-19 23:33:00,76.0,59.0,-100.00,South,180,14.0,-999.0,55,-99.99,,,-99.99,,2013-06-20 04:33:00,
2013-06-19 23:43:00,76.0,59.0,-100.00,South,180,14.0,-999.0,55,-99.99,,,-99.99,,2013-06-20 04:43:00,
2013-06-19 23:54:00,75.0,58.0,-100.00,South,180,14.0,-999.0,55,-99.99,,,-99.99,,2013-06-20 04:54:00,